sensor_id;sensor_type;location;lat;lon;timestamp;temperature;humidity
41256;DHT22;26989;45.524;10.938;2023-02-18T00:01:21;5.30;99.90
41256;DHT22;26989;45.524;10.938;2023-02-18T00:03:49;5.30;99.90
41256;DHT22;26989;45.524;10.938;2023-02-18T00:06:25;5.30;99.90
41256;DHT22;26989;45.524;10.938;2023-02-18T00:08:53;5.30;99.90
41256;DHT22;26989;45.524;10.938;2023-02-18T00:11:21;5.30;99.90
41256;DHT22;26989;45.524;10.938;2023-02-18T00:13:55;5.30;99.90
41256;DHT22;26989;45.524;10.938;2023-02-18T00:16:24;5.20;99.90
41256;DHT22;26989;45.524;10.938;2023-02-18T00:19:00;5.10;99.90
41256;DHT22;26989;45.524;10.938;2023-02-18T00:21:27;5.10;99.90
41256;DHT22;26989;45.524;10.938;2023-02-18T00:23:54;5.20;99.90
41256;DHT22;26989;45.524;10.938;2023-02-18T00:26:21;5.20;99.90
41256;DHT22;26989;45.524;10.938;2023-02-18T00:28:49;5.40;99.90
41256;DHT22;26989;45.524;10.938;2023-02-18T00:31:21;5.40;99.90
41256;DHT22;26989;45.524;10.938;2023-02-18T00:33:49;5.30;99.90
41256;DHT22;26989;45.524;10.938;2023-02-18T00:36:17;5.30;99.90
41256;DHT22;26989;45.524;10.938;2023-02-18T00:38:52;5.30;99.90
41256;DHT22;26989;45.524;10.938;2023-02-18T00:41:21;5.40;99.90
41256;DHT22;26989;45.524;10.938;2023-02-18T00:43:48;5.40;99.90
41256;DHT22;26989;45.524;10.938;2023-02-18T00:46:15;5.40;99.90
41256;DHT22;26989;45.524;10.938;2023-02-18T00:48:42;5.20;99.90
41256;DHT22;26989;45.524;10.938;2023-02-18T00:51:10;5.20;99.90
41256;DHT22;26989;45.524;10.938;2023-02-18T00:53:38;5.20;99.90
41256;DHT22;26989;45.524;10.938;2023-02-18T00:56:05;5.20;99.90
41256;DHT22;26989;45.524;10.938;2023-02-18T00:58:34;5.20;99.90
41256;DHT22;26989;45.524;10.938;2023-02-18T01:01:02;5.30;99.90
41256;DHT22;26989;45.524;10.938;2023-02-18T01:03:32;5.30;99.90
41256;DHT22;26989;45.524;10.938;2023-02-18T01:05:59;5.30;99.90
41256;DHT22;26989;45.524;10.938;2023-02-18T01:08:26;5.30;99.90
41256;DHT22;26989;45.524;10.938;2023-02-18T01:10:54;5.30;99.90
41256;DHT22;26989;45.524;10.938;2023-02-18T01:13:23;5.30;99.90
41256;DHT22;26989;45.524;10.938;2023-02-18T01:15:50;5.20;99.90
41256;DHT22;26989;45.524;10.938;2023-02-18T01:18:17;5.30;99.90
41256;DHT22;26989;45.524;10.938;2023-02-18T01:20:44;5.30;99.90
41256;DHT22;26989;45.524;10.938;2023-02-18T01:23:12;5.30;99.90
41256;DHT22;26989;45.524;10.938;2023-02-18T01:25:39;5.20;99.90
41256;DHT22;26989;45.524;10.938;2023-02-18T01:28:07;5.00;99.90
41256;DHT22;26989;45.524;10.938;2023-02-18T01:30:34;4.90;99.90
41256;DHT22;26989;45.524;10.938;2023-02-18T01:33:01;5.00;99.90
41256;DHT22;26989;45.524;10.938;2023-02-18T01:35:28;5.00;99.90
41256;DHT22;26989;45.524;10.938;2023-02-18T01:37:55;5.10;99.90
41256;DHT22;26989;45.524;10.938;2023-02-18T01:40:26;5.20;99.90
41256;DHT22;26989;45.524;10.938;2023-02-18T01:42:54;5.30;99.90
41256;DHT22;26989;45.524;10.938;2023-02-18T01:46:04;5.20;99.90
41256;DHT22;26989;45.524;10.938;2023-02-18T01:48:54;5.20;99.90
41256;DHT22;26989;45.524;10.938;2023-02-18T01:51:35;5.20;99.90
41256;DHT22;26989;45.524;10.938;2023-02-18T01:57:05;5.20;99.90
41256;DHT22;26989;45.524;10.938;2023-02-18T01:59:44;5.20;99.90
41256;DHT22;26989;45.524;10.938;2023-02-18T02:02:14;5.20;99.90
41256;DHT22;26989;45.524;10.938;2023-02-18T02:04:42;5.20;99.90
41256;DHT22;26989;45.524;10.938;2023-02-18T02:07:10;5.10;99.90
41256;DHT22;26989;45.524;10.938;2023-02-18T02:09:38;5.20;99.90
41256;DHT22;26989;45.524;10.938;2023-02-18T02:15:15;5.20;99.90
41256;DHT22;26989;45.524;10.938;2023-02-18T02:17:59;5.10;99.90
41256;DHT22;26989;45.524;10.938;2023-02-18T02:32:12;5.10;99.90
41256;DHT22;26989;45.524;10.938;2023-02-18T02:35:08;5.10;99.90
41256;DHT22;26989;45.524;10.938;2023-02-18T02:40:43;5.10;99.90
41256;DHT22;26989;45.524;10.938;2023-02-18T02:43:41;5.20;99.90
41256;DHT22;26989;45.524;10.938;2023-02-18T02:46:20;5.10;99.90
41256;DHT22;26989;45.524;10.938;2023-02-18T02:49:07;5.10;99.90
41256;DHT22;26989;45.524;10.938;2023-02-18T02:51:53;5.10;99.90
41256;DHT22;26989;45.524;10.938;2023-02-18T02:54:24;5.20;99.90
41256;DHT22;26989;45.524;10.938;2023-02-18T02:59:58;5.10;99.90
41256;DHT22;26989;45.524;10.938;2023-02-18T03:11:10;5.20;99.90
41256;DHT22;26989;45.524;10.938;2023-02-18T03:13:54;5.20;99.90
41256;DHT22;26989;45.524;10.938;2023-02-18T03:19:04;5.20;99.90
41256;DHT22;26989;45.524;10.938;2023-02-18T03:21:46;5.10;99.90
41256;DHT22;26989;45.524;10.938;2023-02-18T03:24:17;5.20;99.90
41256;DHT22;26989;45.524;10.938;2023-02-18T03:26:53;5.20;99.90
41256;DHT22;26989;45.524;10.938;2023-02-18T03:29:21;5.20;99.90
41256;DHT22;26989;45.524;10.938;2023-02-18T03:31:53;5.20;99.90
41256;DHT22;26989;45.524;10.938;2023-02-18T03:34:29;5.30;99.90
41256;DHT22;26989;45.524;10.938;2023-02-18T03:36:57;5.30;99.90
41256;DHT22;26989;45.524;10.938;2023-02-18T03:39:28;5.30;99.90
41256;DHT22;26989;45.524;10.938;2023-02-18T03:41:55;5.20;99.90
41256;DHT22;26989;45.524;10.938;2023-02-18T03:44:23;5.20;99.90
41256;DHT22;26989;45.524;10.938;2023-02-18T03:46:51;5.40;99.90
41256;DHT22;26989;45.524;10.938;2023-02-18T03:49:18;5.30;99.90
41256;DHT22;26989;45.524;10.938;2023-02-18T03:51:45;5.30;99.90
41256;DHT22;26989;45.524;10.938;2023-02-18T03:54:12;5.30;99.90
41256;DHT22;26989;45.524;10.938;2023-02-18T03:56:40;5.30;99.90
41256;DHT22;26989;45.524;10.938;2023-02-18T03:59:08;5.30;99.90
41256;DHT22;26989;45.524;10.938;2023-02-18T04:01:35;5.20;99.90
41256;DHT22;26989;45.524;10.938;2023-02-18T04:04:02;5.20;99.90
41256;DHT22;26989;45.524;10.938;2023-02-18T04:06:29;5.10;99.90
41256;DHT22;26989;45.524;10.938;2023-02-18T04:08:56;5.10;99.90
41256;DHT22;26989;45.524;10.938;2023-02-18T04:11:23;5.00;99.90
41256;DHT22;26989;45.524;10.938;2023-02-18T04:13:50;5.00;99.90
41256;DHT22;26989;45.524;10.938;2023-02-18T04:16:17;4.70;99.90
41256;DHT22;26989;45.524;10.938;2023-02-18T04:18:44;4.70;99.90
41256;DHT22;26989;45.524;10.938;2023-02-18T04:21:11;4.90;99.90
41256;DHT22;26989;45.524;10.938;2023-02-18T04:23:37;5.00;99.90
41256;DHT22;26989;45.524;10.938;2023-02-18T04:26:04;5.00;99.90
41256;DHT22;26989;45.524;10.938;2023-02-18T04:28:31;5.00;99.90
41256;DHT22;26989;45.524;10.938;2023-02-18T04:30:58;5.00;99.90
41256;DHT22;26989;45.524;10.938;2023-02-18T04:33:25;4.90;99.90
41256;DHT22;26989;45.524;10.938;2023-02-18T04:35:52;4.80;99.90
41256;DHT22;26989;45.524;10.938;2023-02-18T04:38:18;4.80;99.90
41256;DHT22;26989;45.524;10.938;2023-02-18T04:40:45;4.60;99.90
41256;DHT22;26989;45.524;10.938;2023-02-18T04:43:12;4.60;99.90
41256;DHT22;26989;45.524;10.938;2023-02-18T04:45:39;4.60;99.90
41256;DHT22;26989;45.524;10.938;2023-02-18T04:48:06;4.50;99.90
41256;DHT22;26989;45.524;10.938;2023-02-18T04:50:33;4.40;99.90
41256;DHT22;26989;45.524;10.938;2023-02-18T04:53:00;4.50;99.90
41256;DHT22;26989;45.524;10.938;2023-02-18T04:55:27;4.70;99.90
41256;DHT22;26989;45.524;10.938;2023-02-18T04:57:54;4.60;99.90
41256;DHT22;26989;45.524;10.938;2023-02-18T05:00:21;4.70;99.90
41256;DHT22;26989;45.524;10.938;2023-02-18T05:02:48;4.70;99.90
41256;DHT22;26989;45.524;10.938;2023-02-18T05:05:15;4.70;99.90
41256;DHT22;26989;45.524;10.938;2023-02-18T05:07:41;4.70;99.90
41256;DHT22;26989;45.524;10.938;2023-02-18T05:10:10;4.70;99.90
41256;DHT22;26989;45.524;10.938;2023-02-18T05:12:37;4.70;99.90
41256;DHT22;26989;45.524;10.938;2023-02-18T05:15:04;4.40;99.90
41256;DHT22;26989;45.524;10.938;2023-02-18T05:17:31;4.40;99.90
41256;DHT22;26989;45.524;10.938;2023-02-18T05:19:58;4.40;99.90
41256;DHT22;26989;45.524;10.938;2023-02-18T05:22:25;4.40;99.90
41256;DHT22;26989;45.524;10.938;2023-02-18T05:24:51;4.40;99.90
41256;DHT22;26989;45.524;10.938;2023-02-18T05:27:18;4.50;99.90
41256;DHT22;26989;45.524;10.938;2023-02-18T05:29:45;4.60;99.90
41256;DHT22;26989;45.524;10.938;2023-02-18T05:32:12;4.60;99.90
41256;DHT22;26989;45.524;10.938;2023-02-18T05:34:39;4.50;99.90
41256;DHT22;26989;45.524;10.938;2023-02-18T05:37:06;4.50;99.90
41256;DHT22;26989;45.524;10.938;2023-02-18T05:39:33;4.50;99.90
41256;DHT22;26989;45.524;10.938;2023-02-18T05:42:00;4.50;99.90
41256;DHT22;26989;45.524;10.938;2023-02-18T05:44:27;4.40;99.90
41256;DHT22;26989;45.524;10.938;2023-02-18T05:47:08;4.30;99.90
41256;DHT22;26989;45.524;10.938;2023-02-18T05:49:38;4.20;99.90
41256;DHT22;26989;45.524;10.938;2023-02-18T05:52:05;4.20;99.90
41256;DHT22;26989;45.524;10.938;2023-02-18T05:54:33;4.30;99.90
41256;DHT22;26989;45.524;10.938;2023-02-18T05:57:00;4.30;99.90
41256;DHT22;26989;45.524;10.938;2023-02-18T05:59:27;4.30;99.90
41256;DHT22;26989;45.524;10.938;2023-02-18T06:01:55;4.30;99.90
41256;DHT22;26989;45.524;10.938;2023-02-18T06:04:21;4.20;99.90
41256;DHT22;26989;45.524;10.938;2023-02-18T06:06:48;4.20;99.90
41256;DHT22;26989;45.524;10.938;2023-02-18T06:09:15;4.10;99.90
41256;DHT22;26989;45.524;10.938;2023-02-18T06:11:42;4.00;99.90
41256;DHT22;26989;45.524;10.938;2023-02-18T06:14:09;4.00;99.90
41256;DHT22;26989;45.524;10.938;2023-02-18T06:16:36;4.00;99.90
41256;DHT22;26989;45.524;10.938;2023-02-18T06:19:03;4.00;99.90
41256;DHT22;26989;45.524;10.938;2023-02-18T06:21:30;4.00;99.90
41256;DHT22;26989;45.524;10.938;2023-02-18T06:23:57;3.90;99.90
41256;DHT22;26989;45.524;10.938;2023-02-18T06:26:24;3.80;99.90
41256;DHT22;26989;45.524;10.938;2023-02-18T06:28:51;3.70;99.90
41256;DHT22;26989;45.524;10.938;2023-02-18T06:31:18;3.60;99.90
41256;DHT22;26989;45.524;10.938;2023-02-18T06:33:45;3.40;99.90
41256;DHT22;26989;45.524;10.938;2023-02-18T06:36:12;3.30;99.90
41256;DHT22;26989;45.524;10.938;2023-02-18T06:38:41;3.30;99.90
41256;DHT22;26989;45.524;10.938;2023-02-18T06:41:10;3.20;99.90
41256;DHT22;26989;45.524;10.938;2023-02-18T06:43:37;3.00;99.90
41256;DHT22;26989;45.524;10.938;2023-02-18T06:46:05;2.80;99.90
41256;DHT22;26989;45.524;10.938;2023-02-18T06:48:32;2.60;99.90
41256;DHT22;26989;45.524;10.938;2023-02-18T06:50:59;2.50;99.90
41256;DHT22;26989;45.524;10.938;2023-02-18T06:53:27;2.60;99.90
41256;DHT22;26989;45.524;10.938;2023-02-18T06:55:53;2.50;99.90
41256;DHT22;26989;45.524;10.938;2023-02-18T06:58:20;2.60;99.90
41256;DHT22;26989;45.524;10.938;2023-02-18T07:00:48;2.70;99.90
41256;DHT22;26989;45.524;10.938;2023-02-18T07:03:15;2.90;99.90
41256;DHT22;26989;45.524;10.938;2023-02-18T07:05:42;3.00;99.90
41256;DHT22;26989;45.524;10.938;2023-02-18T07:08:09;3.10;99.90
41256;DHT22;26989;45.524;10.938;2023-02-18T07:10:36;3.20;99.90
41256;DHT22;26989;45.524;10.938;2023-02-18T07:13:04;3.30;99.90
41256;DHT22;26989;45.524;10.938;2023-02-18T07:15:31;3.50;99.90
41256;DHT22;26989;45.524;10.938;2023-02-18T07:17:58;3.60;99.90
41256;DHT22;26989;45.524;10.938;2023-02-18T07:20:25;3.80;99.90
41256;DHT22;26989;45.524;10.938;2023-02-18T07:22:53;3.90;99.90
41256;DHT22;26989;45.524;10.938;2023-02-18T07:25:20;4.00;99.90
41256;DHT22;26989;45.524;10.938;2023-02-18T07:27:49;4.30;99.90
41256;DHT22;26989;45.524;10.938;2023-02-18T07:30:17;4.40;99.90
41256;DHT22;26989;45.524;10.938;2023-02-18T07:32:44;4.60;99.90
41256;DHT22;26989;45.524;10.938;2023-02-18T07:35:14;4.80;99.90
41256;DHT22;26989;45.524;10.938;2023-02-18T07:37:48;4.80;99.90
41256;DHT22;26989;45.524;10.938;2023-02-18T07:40:18;4.90;99.90
41256;DHT22;26989;45.524;10.938;2023-02-18T07:42:45;5.00;99.90
41256;DHT22;26989;45.524;10.938;2023-02-18T07:45:12;5.10;99.90
41256;DHT22;26989;45.524;10.938;2023-02-18T07:47:39;5.30;99.90
41256;DHT22;26989;45.524;10.938;2023-02-18T07:50:08;5.40;99.90
41256;DHT22;26989;45.524;10.938;2023-02-18T07:52:35;5.50;99.90
41256;DHT22;26989;45.524;10.938;2023-02-18T07:55:02;5.40;99.90
41256;DHT22;26989;45.524;10.938;2023-02-18T07:57:29;5.70;99.90
41256;DHT22;26989;45.524;10.938;2023-02-18T07:59:56;5.70;99.90
41256;DHT22;26989;45.524;10.938;2023-02-18T08:02:23;5.80;99.90
41256;DHT22;26989;45.524;10.938;2023-02-18T08:04:50;6.00;99.90
41256;DHT22;26989;45.524;10.938;2023-02-18T08:07:20;6.20;99.90
41256;DHT22;26989;45.524;10.938;2023-02-18T08:09:47;6.30;99.90
41256;DHT22;26989;45.524;10.938;2023-02-18T08:12:16;6.40;99.90
41256;DHT22;26989;45.524;10.938;2023-02-18T08:14:43;6.30;99.90
41256;DHT22;26989;45.524;10.938;2023-02-18T08:17:11;6.10;99.90
41256;DHT22;26989;45.524;10.938;2023-02-18T08:19:38;6.10;99.90
41256;DHT22;26989;45.524;10.938;2023-02-18T08:22:05;6.20;99.90
41256;DHT22;26989;45.524;10.938;2023-02-18T08:24:32;6.20;99.90
41256;DHT22;26989;45.524;10.938;2023-02-18T08:26:59;6.00;99.90
41256;DHT22;26989;45.524;10.938;2023-02-18T08:29:28;5.90;99.90
41256;DHT22;26989;45.524;10.938;2023-02-18T08:31:55;5.90;99.90
41256;DHT22;26989;45.524;10.938;2023-02-18T08:34:25;6.10;99.90
41256;DHT22;26989;45.524;10.938;2023-02-18T08:36:52;6.20;99.90
41256;DHT22;26989;45.524;10.938;2023-02-18T08:39:19;6.40;99.90
41256;DHT22;26989;45.524;10.938;2023-02-18T08:41:46;6.60;99.90
41256;DHT22;26989;45.524;10.938;2023-02-18T08:44:13;6.60;99.90
41256;DHT22;26989;45.524;10.938;2023-02-18T08:46:40;6.50;99.90
41256;DHT22;26989;45.524;10.938;2023-02-18T08:49:07;6.60;99.90
41256;DHT22;26989;45.524;10.938;2023-02-18T08:51:34;6.70;99.90
41256;DHT22;26989;45.524;10.938;2023-02-18T08:54:01;6.70;99.90
41256;DHT22;26989;45.524;10.938;2023-02-18T08:56:28;6.70;99.90
41256;DHT22;26989;45.524;10.938;2023-02-18T08:58:55;6.70;99.90
41256;DHT22;26989;45.524;10.938;2023-02-18T09:01:22;6.90;99.90
41256;DHT22;26989;45.524;10.938;2023-02-18T09:03:49;7.10;99.90
41256;DHT22;26989;45.524;10.938;2023-02-18T09:06:16;7.10;99.90
41256;DHT22;26989;45.524;10.938;2023-02-18T09:08:43;7.00;99.90
41256;DHT22;26989;45.524;10.938;2023-02-18T09:11:10;7.00;99.90
41256;DHT22;26989;45.524;10.938;2023-02-18T09:13:37;7.10;99.90
41256;DHT22;26989;45.524;10.938;2023-02-18T09:16:14;7.20;99.90
41256;DHT22;26989;45.524;10.938;2023-02-18T09:18:45;7.20;99.90
41256;DHT22;26989;45.524;10.938;2023-02-18T09:21:13;7.30;99.90
41256;DHT22;26989;45.524;10.938;2023-02-18T09:23:41;7.80;99.90
41256;DHT22;26989;45.524;10.938;2023-02-18T09:26:10;8.00;99.90
41256;DHT22;26989;45.524;10.938;2023-02-18T09:28:39;8.00;99.90
41256;DHT22;26989;45.524;10.938;2023-02-18T09:31:15;8.20;99.90
41256;DHT22;26989;45.524;10.938;2023-02-18T09:33:47;8.10;99.90
41256;DHT22;26989;45.524;10.938;2023-02-18T09:36:17;8.10;99.90
41256;DHT22;26989;45.524;10.938;2023-02-18T09:38:47;7.80;99.90
41256;DHT22;26989;45.524;10.938;2023-02-18T09:41:41;7.70;99.90
41256;DHT22;26989;45.524;10.938;2023-02-18T09:46:51;7.10;99.90
41256;DHT22;26989;45.524;10.938;2023-02-18T09:49:26;7.00;99.90
41256;DHT22;26989;45.524;10.938;2023-02-18T09:51:56;7.20;99.90
41256;DHT22;26989;45.524;10.938;2023-02-18T09:54:27;7.40;99.90
41256;DHT22;26989;45.524;10.938;2023-02-18T09:56:54;7.50;99.90
41256;DHT22;26989;45.524;10.938;2023-02-18T09:59:23;7.90;99.90
41256;DHT22;26989;45.524;10.938;2023-02-18T10:01:52;8.20;99.90
41256;DHT22;26989;45.524;10.938;2023-02-18T10:04:36;8.20;99.90
41256;DHT22;26989;45.524;10.938;2023-02-18T10:07:16;8.10;99.90
41256;DHT22;26989;45.524;10.938;2023-02-18T10:09:45;8.30;99.90
41256;DHT22;26989;45.524;10.938;2023-02-18T10:12:16;8.40;99.90
41256;DHT22;26989;45.524;10.938;2023-02-18T10:14:51;8.70;99.90
41256;DHT22;26989;45.524;10.938;2023-02-18T10:17:21;8.60;99.90
41256;DHT22;26989;45.524;10.938;2023-02-18T10:19:51;8.60;99.90
41256;DHT22;26989;45.524;10.938;2023-02-18T10:22:19;8.40;99.90
41256;DHT22;26989;45.524;10.938;2023-02-18T10:27:27;8.40;99.90
41256;DHT22;26989;45.524;10.938;2023-02-18T10:29:59;8.40;99.90
41256;DHT22;26989;45.524;10.938;2023-02-18T10:32:37;8.40;99.90
41256;DHT22;26989;45.524;10.938;2023-02-18T10:35:40;8.40;99.90
41256;DHT22;26989;45.524;10.938;2023-02-18T10:45:57;8.50;99.90
41256;DHT22;26989;45.524;10.938;2023-02-18T10:51:11;9.00;99.90
41256;DHT22;26989;45.524;10.938;2023-02-18T10:53:42;9.30;99.90
41256;DHT22;26989;45.524;10.938;2023-02-18T11:01:54;9.20;99.90
41256;DHT22;26989;45.524;10.938;2023-02-18T11:04:33;9.20;99.90
41256;DHT22;26989;45.524;10.938;2023-02-18T11:07:25;9.20;99.90
41256;DHT22;26989;45.524;10.938;2023-02-18T11:09:54;9.10;99.90
41256;DHT22;26989;45.524;10.938;2023-02-18T11:12:23;9.20;99.90
41256;DHT22;26989;45.524;10.938;2023-02-18T11:15:23;9.30;99.90
41256;DHT22;26989;45.524;10.938;2023-02-18T11:17:52;9.40;99.90
41256;DHT22;26989;45.524;10.938;2023-02-18T11:22:57;9.70;99.90
41256;DHT22;26989;45.524;10.938;2023-02-18T11:25:27;9.70;99.90
41256;DHT22;26989;45.524;10.938;2023-02-18T11:28:01;9.50;99.90
41256;DHT22;26989;45.524;10.938;2023-02-18T11:30:34;9.50;99.90
41256;DHT22;26989;45.524;10.938;2023-02-18T11:33:49;9.80;99.90
41256;DHT22;26989;45.524;10.938;2023-02-18T11:35:57;9.70;99.90
41256;DHT22;26989;45.524;10.938;2023-02-18T11:38:33;9.80;99.90
41256;DHT22;26989;45.524;10.938;2023-02-18T11:41:09;9.50;99.90
41256;DHT22;26989;45.524;10.938;2023-02-18T11:43:40;9.30;99.90
41256;DHT22;26989;45.524;10.938;2023-02-18T11:46:19;9.60;99.90
41256;DHT22;26989;45.524;10.938;2023-02-18T11:48:47;9.70;99.90
41256;DHT22;26989;45.524;10.938;2023-02-18T11:54:01;9.70;99.90
41256;DHT22;26989;45.524;10.938;2023-02-18T11:56:31;9.60;99.90
41256;DHT22;26989;45.524;10.938;2023-02-18T11:59:00;10.00;99.90
41256;DHT22;26989;45.524;10.938;2023-02-18T12:01:44;10.00;99.90
41256;DHT22;26989;45.524;10.938;2023-02-18T12:04:17;10.10;99.90
41256;DHT22;26989;45.524;10.938;2023-02-18T12:07:05;10.10;99.90
41256;DHT22;26989;45.524;10.938;2023-02-18T12:12:25;10.50;99.90
41256;DHT22;26989;45.524;10.938;2023-02-18T12:14:54;10.40;99.90
41256;DHT22;26989;45.524;10.938;2023-02-18T12:20:23;10.90;99.90
41256;DHT22;26989;45.524;10.938;2023-02-18T12:23:36;11.00;99.90
41256;DHT22;26989;45.524;10.938;2023-02-18T12:31:57;11.00;99.90
41256;DHT22;26989;45.524;10.938;2023-02-18T12:48:22;11.20;99.90
41256;DHT22;26989;45.524;10.938;2023-02-18T12:56:56;11.10;99.90
41256;DHT22;26989;45.524;10.938;2023-02-18T12:59:39;11.00;99.90
41256;DHT22;26989;45.524;10.938;2023-02-18T13:07:56;11.10;99.90
41256;DHT22;26989;45.524;10.938;2023-02-18T13:13:19;11.50;99.90
41256;DHT22;26989;45.524;10.938;2023-02-18T13:15:54;11.50;99.90
41256;DHT22;26989;45.524;10.938;2023-02-18T13:21:18;11.50;99.90
41256;DHT22;26989;45.524;10.938;2023-02-18T13:23:58;11.50;99.90
41256;DHT22;26989;45.524;10.938;2023-02-18T13:26:28;11.60;99.90
41256;DHT22;26989;45.524;10.938;2023-02-18T13:29:25;11.70;99.90
41256;DHT22;26989;45.524;10.938;2023-02-18T13:34:47;12.10;99.90
41256;DHT22;26989;45.524;10.938;2023-02-18T13:40:21;12.00;99.90
41256;DHT22;26989;45.524;10.938;2023-02-18T13:42:52;11.30;99.90
41256;DHT22;26989;45.524;10.938;2023-02-18T13:45:31;11.60;99.90
41256;DHT22;26989;45.524;10.938;2023-02-18T13:47:59;11.60;99.90
41256;DHT22;26989;45.524;10.938;2023-02-18T13:50:30;11.40;99.90
41256;DHT22;26989;45.524;10.938;2023-02-18T13:58:15;11.20;99.90
41256;DHT22;26989;45.524;10.938;2023-02-18T14:00:53;11.20;99.90
41256;DHT22;26989;45.524;10.938;2023-02-18T14:03:54;11.20;99.90
41256;DHT22;26989;45.524;10.938;2023-02-18T14:06:24;11.10;99.90
41256;DHT22;26989;45.524;10.938;2023-02-18T14:14:44;11.20;99.90
41256;DHT22;26989;45.524;10.938;2023-02-18T14:17:29;11.00;99.90
41256;DHT22;26989;45.524;10.938;2023-02-18T14:27:52;10.10;99.90
41256;DHT22;26989;45.524;10.938;2023-02-18T14:30:24;10.60;99.90
41256;DHT22;26989;45.524;10.938;2023-02-18T14:32:54;10.60;99.90
41256;DHT22;26989;45.524;10.938;2023-02-18T14:35:36;10.60;99.90
41256;DHT22;26989;45.524;10.938;2023-02-18T14:38:08;10.40;99.90
41256;DHT22;26989;45.524;10.938;2023-02-18T14:46:43;10.50;99.90
41256;DHT22;26989;45.524;10.938;2023-02-18T14:54:47;11.00;99.90
41256;DHT22;26989;45.524;10.938;2023-02-18T14:57:20;11.00;99.90
41256;DHT22;26989;45.524;10.938;2023-02-18T14:59:57;10.90;99.90
41256;DHT22;26989;45.524;10.938;2023-02-18T15:02:27;10.90;99.90
41256;DHT22;26989;45.524;10.938;2023-02-18T15:05:16;11.00;99.90
41256;DHT22;26989;45.524;10.938;2023-02-18T15:08:04;11.20;99.90
41256;DHT22;26989;45.524;10.938;2023-02-18T15:10:41;11.00;99.90
41256;DHT22;26989;45.524;10.938;2023-02-18T15:13:21;11.00;99.90
41256;DHT22;26989;45.524;10.938;2023-02-18T15:15:52;11.00;99.90
41256;DHT22;26989;45.524;10.938;2023-02-18T15:18:32;10.90;99.90
41256;DHT22;26989;45.524;10.938;2023-02-18T15:21:01;10.90;99.90
41256;DHT22;26989;45.524;10.938;2023-02-18T15:23:29;10.90;99.90
41256;DHT22;26989;45.524;10.938;2023-02-18T15:25:57;10.80;99.90
41256;DHT22;26989;45.524;10.938;2023-02-18T15:28:30;10.80;99.90
41256;DHT22;26989;45.524;10.938;2023-02-18T15:30:58;10.80;99.90
41256;DHT22;26989;45.524;10.938;2023-02-18T15:33:26;10.60;99.90
41256;DHT22;26989;45.524;10.938;2023-02-18T15:36:01;10.60;99.90
41256;DHT22;26989;45.524;10.938;2023-02-18T15:38:29;10.50;99.90
41256;DHT22;26989;45.524;10.938;2023-02-18T15:40:56;10.50;99.90
41256;DHT22;26989;45.524;10.938;2023-02-18T15:43:25;10.40;99.90
41256;DHT22;26989;45.524;10.938;2023-02-18T15:45:56;10.30;99.90
41256;DHT22;26989;45.524;10.938;2023-02-18T15:48:42;10.20;99.90
41256;DHT22;26989;45.524;10.938;2023-02-18T15:51:13;10.20;99.90
41256;DHT22;26989;45.524;10.938;2023-02-18T15:53:46;10.20;99.90
41256;DHT22;26989;45.524;10.938;2023-02-18T15:56:28;10.10;99.90
41256;DHT22;26989;45.524;10.938;2023-02-18T15:59:29;10.00;99.90
41256;DHT22;26989;45.524;10.938;2023-02-18T16:02:18;10.00;99.90
41256;DHT22;26989;45.524;10.938;2023-02-18T16:04:47;9.90;99.90
41256;DHT22;26989;45.524;10.938;2023-02-18T16:07:23;9.80;99.90
41256;DHT22;26989;45.524;10.938;2023-02-18T16:12:37;9.70;99.90
41256;DHT22;26989;45.524;10.938;2023-02-18T16:15:05;9.80;99.90
41256;DHT22;26989;45.524;10.938;2023-02-18T16:17:32;9.70;99.90
41256;DHT22;26989;45.524;10.938;2023-02-18T16:20:14;9.70;99.90
41256;DHT22;26989;45.524;10.938;2023-02-18T16:22:44;9.70;99.90
41256;DHT22;26989;45.524;10.938;2023-02-18T16:30:25;9.50;99.90
41256;DHT22;26989;45.524;10.938;2023-02-18T16:32:53;9.40;99.90
41256;DHT22;26989;45.524;10.938;2023-02-18T16:35:21;9.40;99.90
41256;DHT22;26989;45.524;10.938;2023-02-18T16:37:48;9.30;99.90
41256;DHT22;26989;45.524;10.938;2023-02-18T16:42:49;9.10;99.90
41256;DHT22;26989;45.524;10.938;2023-02-18T16:45:17;9.00;99.90
41256;DHT22;26989;45.524;10.938;2023-02-18T16:47:46;8.90;99.90
41256;DHT22;26989;45.524;10.938;2023-02-18T16:50:18;8.90;99.90
41256;DHT22;26989;45.524;10.938;2023-02-18T16:52:47;8.80;99.90
41256;DHT22;26989;45.524;10.938;2023-02-18T16:55:23;8.70;99.90
41256;DHT22;26989;45.524;10.938;2023-02-18T16:57:50;8.60;99.90
41256;DHT22;26989;45.524;10.938;2023-02-18T17:00:17;8.50;99.90
41256;DHT22;26989;45.524;10.938;2023-02-18T17:02:47;8.40;99.90
41256;DHT22;26989;45.524;10.938;2023-02-18T17:05:26;8.50;99.90
41256;DHT22;26989;45.524;10.938;2023-02-18T17:07:54;8.40;99.90
41256;DHT22;26989;45.524;10.938;2023-02-18T17:10:21;8.40;99.90
41256;DHT22;26989;45.524;10.938;2023-02-18T17:12:48;8.30;99.90
41256;DHT22;26989;45.524;10.938;2023-02-18T17:15:29;8.20;99.90
41256;DHT22;26989;45.524;10.938;2023-02-18T17:17:56;8.00;99.90
41256;DHT22;26989;45.524;10.938;2023-02-18T17:20:27;8.00;99.90
41256;DHT22;26989;45.524;10.938;2023-02-18T17:22:55;7.90;99.90
41256;DHT22;26989;45.524;10.938;2023-02-18T17:25:31;7.90;99.90
41256;DHT22;26989;45.524;10.938;2023-02-18T17:27:59;7.80;99.90
41256;DHT22;26989;45.524;10.938;2023-02-18T17:30:26;7.80;99.90
41256;DHT22;26989;45.524;10.938;2023-02-18T17:32:53;7.90;99.90
41256;DHT22;26989;45.524;10.938;2023-02-18T17:35:22;7.90;99.90
41256;DHT22;26989;45.524;10.938;2023-02-18T17:37:49;7.90;99.90
41256;DHT22;26989;45.524;10.938;2023-02-18T17:40:19;7.80;99.90
41256;DHT22;26989;45.524;10.938;2023-02-18T17:42:48;7.70;99.90
41256;DHT22;26989;45.524;10.938;2023-02-18T17:47:47;7.70;99.90
41256;DHT22;26989;45.524;10.938;2023-02-18T17:50:15;7.60;99.90
41256;DHT22;26989;45.524;10.938;2023-02-18T17:52:42;7.60;99.90
41256;DHT22;26989;45.524;10.938;2023-02-18T17:55:19;7.60;99.90
41256;DHT22;26989;45.524;10.938;2023-02-18T17:57:46;7.60;99.90
41256;DHT22;26989;45.524;10.938;2023-02-18T18:00:29;7.60;99.90
41256;DHT22;26989;45.524;10.938;2023-02-18T18:02:56;7.50;99.90
41256;DHT22;26989;45.524;10.938;2023-02-18T18:05:26;7.40;99.90
41256;DHT22;26989;45.524;10.938;2023-02-18T18:07:55;7.30;99.90
41256;DHT22;26989;45.524;10.938;2023-02-18T18:10:23;7.20;99.90
41256;DHT22;26989;45.524;10.938;2023-02-18T18:12:54;7.30;99.90
41256;DHT22;26989;45.524;10.938;2023-02-18T18:15:28;7.20;99.90
41256;DHT22;26989;45.524;10.938;2023-02-18T18:17:56;7.20;99.90
41256;DHT22;26989;45.524;10.938;2023-02-18T18:20:25;7.20;99.90
41256;DHT22;26989;45.524;10.938;2023-02-18T18:22:54;7.10;99.90
41256;DHT22;26989;45.524;10.938;2023-02-18T18:25:35;7.10;99.90